Blue Springs, MS (38828)

5:06 AM CDT on June 30, 2015 (GMT -0500)
APRSWXNET | | Change Station
CLOSE
Current Station
Personal Weather Station
Location: Blue Springs, MS
Elevation: 370 ft
Nearby Weather Stations

Elev 370 ft 34.36 °N, 88.84 °W | Updated 25 minutes ago

Partly Cloudy
Partly Cloudy
74 °F
Feels Like 72 °F
N
0
Wind Variable Wind from NE
Gusts 1.0 mph

Today
High -- | Low -- °F
--% Chance of Precip.
Yesterday
High -- | Low -- °F
Precip. -- in
5:46 AM 8:11 PM
Waxing Gibbous, 97% visible
Pressure 29.94 in
Visibility 6.0 miles
Clouds Few 2100 ft
Heat Index 72 °F
Dew Point 72 °F
Humidity 92%
Rainfall in
Snow Depth Not available.
UV 0 out of 12
Pollen 3.60 out of 12
Air Quality Not available.
Flu Activity No Activity
METAR KTUP 300953Z AUTO 23005KT 6SM BR FEW021 24/22 A2995 RMK AO2 LTG DSNT SW AND W SLP138 T02390217 $

More Conditions Fewer Conditions

Pressure 29.94 in
Visibility 6.0 miles
Clouds Few 2100 ft
Heat Index 72 °F
Dew Point 72 °F
Humidity 92%
Rainfall in
Snow Depth Not available.
UV 0 out of 12
Pollen 3.60 out of 12
Air Quality Not available.
Flu Activity No Activity
METAR KTUP 300953Z AUTO 23005KT 6SM BR FEW021 24/22 A2995 RMK AO2 LTG DSNT SW AND W SLP138 T02390217 $

More Conditions Fewer Conditions

10-Day Weather Forecast

Almanac

Astronomy

Jun. 30, 2015 Rise Set
Actual Time
Civil Twilight
Nautical Twilight
Astronomical Twilight
Moon
Length of Visible Light
Length of Day
Tomorrow will be .
, % of the Moon is Illuminated

Today's Extremes

State Highs State Lows

Community

WunderPhotos

Upload Photos

1,833,986 photos uploaded!

WunderBlogs® & News

Nearby

Air Quality

  Air Quality AQ Index Pollutant
Not available.

Snow Depth

Station Depth Elevation

Earthquake Activity

City Distance Mag. Time & Date
Minimum magnitude displayed is 2.5.

Coastal Water Temperatures

Place Temperature

Stations

Nearby Weather Stations

Station Location Temp. Windchill Dew Point Humidity Wind Precip. Elev Updated Type